• Join FlightAware (Why Join?)
  • Login
  • US Flag 
05:06AM EDT


 

Airport Tracker/Info


-or-


 

Live Flight TrackerFlight Track Log ✈ QFA696 ✈ 11-Nov-2013 ✈ YPAD / ADL - YMML / MEL

Flight Track Log - Related Links

Times and Time Zones

All times are in EST time to prevent confusion due to time zone crossing. See the QFA696 flight status page for this flight to view local times or setup timezone preferences in your user account.

Time Position Orientation Groundspeed Altitude Reporting Facility
EST Latitude Longitude Course Direction KTS MPH feet Rate Location/Type
03:59AM -34.9453 138.5364 230° Southwest 110 127  Level FlightAware ADS-B (YPAD / ADL)
04:00AM -34.9527 138.5256 230° Southwest 149 171 100 1,560 Climbing FlightAware ADS-B (YPAD / ADL)
04:00AM -34.9631 138.5103 230° Southwest 149 171 1,100 2,400 Climbing FlightAware ADS-B (YPAD / ADL)
04:00AM -34.9681 138.5032 229° Southwest 160 184 1,400 2,160 Climbing FlightAware ADS-B (YPAD / ADL)
04:01AM -34.9785 138.4882 230° Southwest 193 222 2,200 2,700 Climbing FlightAware ADS-B (YPAD / ADL)
04:01AM -34.9912 138.4695 230° Southwest 225 259 3,200 2,580 Climbing FlightAware ADS-B (YPAD / ADL)
04:01AM -34.9982 138.4592 230° Southwest 239 275 3,500 2,100 Climbing FlightAware ADS-B (YPAD / ADL)
04:01AM -35.0061 138.4480 230° Southwest 254 292 3,900 2,520 Climbing FlightAware ADS-B (YPAD / ADL)
04:01AM -35.0153 138.4358 227° Southwest 274 315 4,400 2,520 Climbing FlightAware ADS-B (YPAD / ADL)
04:02AM -35.0229 138.4290 216° Southwest 284 327 4,800 2,160 Climbing FlightAware ADS-B (YPAD / ADL)
04:02AM -35.0344 138.4226 204° Southwest 298 343 5,100 2,160 Climbing FlightAware ADS-B (YPAD / ADL)
04:02AM -35.0508 138.4196 189° South 309 356 5,500 2,400 Climbing FlightAware ADS-B (YPAD / ADL)
04:02AM -35.0657 138.4221 172° South 314 361 5,900 2,100 Climbing FlightAware ADS-B (YPAD / ADL)
04:02AM -35.0795 138.4290 158° South 326 375 6,200 2,100 Climbing FlightAware ADS-B (YPAD / ADL)
04:02AM -35.0923 138.4406 144° Southeast 346 398 6,600 2,700 Climbing FlightAware ADS-B (YPAD / ADL)
04:03AM -35.1027 138.4559 130° Southeast 346 398 7,100 3,300 Climbing FlightAware ADS-B (YPAD / ADL)
04:03AM -35.1107 138.4743 118° Southeast 352 405 7,700 3,600 Climbing FlightAware ADS-B (YPAD / ADL)
04:03AM -35.1152 138.4937 106° East 354 407 8,300 3,720 Climbing FlightAware ADS-B (YPAD / ADL)
04:03AM -35.1181 138.5321 95° East 359 413 9,500 3,960 Climbing FlightAware ADS-B (YPAD / ADL)
04:03AM -35.1219 138.5527 103° East 356 410 10,300 3,900 Climbing FlightAware ADS-B (YPAD / ADL)
04:04AM -35.1399 138.6098 111° Southeast 358 412 12,200 3,480 Climbing FlightAware ADS-B (YPAD / ADL)
04:04AM -35.1568 138.6675 110° East 368 423 13,800 3,180 Climbing FlightAware ADS-B (YPAD / ADL)
04:05AM -35.1770 138.7265 113° Southeast 379 436 15,400 2,820 Climbing FlightAware ADS-B (YPAD / ADL)
04:06AM -35.2017 138.8014 112° Southeast 398 458 17,100 2,700 Climbing FlightAware ADS-B (YPAD / ADL)
04:06AM -35.2245 138.8721 111° Southeast 405 466 18,600 3,120 Climbing FlightAware ADS-B (YPAD / ADL)
04:07AM -35.2503 138.9530 111° Southeast 404 465 20,700 2,880 Climbing FlightAware ADS-B (YPAD / ADL)
04:07AM -35.2711 139.0178 111° Southeast 411 473 22,000 2,400 Climbing FlightAware ADS-B (YPAD / ADL)
04:07AM -35.2793 139.0432 112° Southeast 412 474 22,400 2,400 Climbing FlightAware ADS-B (YPAD / ADL)
04:08AM -35.2865 139.0654 111° Southeast 415 478 22,800 1,980 Climbing FlightAware ADS-B (YPAD / ADL)
04:08AM -35.3002 139.1080 112° Southeast 423 487 23,400 1,980 Climbing FlightAware ADS-B (YPAD / ADL)
04:08AM -35.3228 139.1784 111° Southeast 432 497 24,500 2,040 Climbing FlightAware ADS-B (YPAD / ADL)
04:09AM -35.3295 139.1994 111° Southeast 435 501 24,800 1,680 Climbing FlightAware ADS-B (YPAD / ADL)
04:09AM -35.3589 139.2912 111° Southeast 446 513 25,900 1,680 Climbing FlightAware ADS-B (YPAD / ADL)
04:10AM -35.3816 139.3627 111° Southeast 452 520 26,800 1,860 Climbing FlightAware ADS-B (YPAD / ADL)
04:10AM -35.4041 139.4338 111° Southeast 452 520 27,800 2,160 Climbing FlightAware ADS-B (YPAD / ADL)
04:11AM -35.4268 139.5054 111° Southeast 448 516 29,000 1,980 Climbing FlightAware ADS-B (YPAD / ADL)
04:11AM -35.4578 139.6031 111° Southeast 452 520 30,200 1,560 Climbing FlightAware ADS-B (YPAD / ADL)
04:12AM -35.4786 139.6688 111° Southeast 458 527 30,900 1,440 Climbing FlightAware ADS-B (YPAD / ADL)
04:13AM -35.5105 139.7701 111° Southeast 463 533 31,900 1,440 Climbing FlightAware ADS-B (YPAD / ADL)
04:13AM -35.5332 139.8430 111° Southeast 464 534 32,600 1,320 Climbing FlightAware ADS-B (YPAD / ADL)
04:14AM -35.5550 139.9140 111° Southeast 469 540 33,300 1,800 Climbing FlightAware
04:14AM -35.5927 140.0300 111° Southeast 463 533 34,900 1,740 Climbing Aus ATC (RADAR)
04:15AM -35.6140 140.0980 111° Southeast 461 531 35,500 1,680 Climbing FlightAware
04:15AM -35.6190 140.1155 111° Southeast 460 529 35,900 1,080 Climbing Aus ATC (RADAR)
04:15AM -35.6461 140.2017 111° Southeast 465 535 36,200 120 Climbing Aus ATC (RADAR)
04:15AM -35.6450 140.1990 111° Southeast 472 543 36,000 480 Descending FlightAware
04:16AM -35.6735 140.2912 111° Southeast 477 549 36,500 600 Climbing Aus ATC (RADAR)
04:16AM -35.6760 140.3020 111° Southeast 486 559 36,400 540 Descending FlightAware
04:17AM -35.7020 140.3870 111° Southeast 490 564 36,900 480 Climbing FlightAware
04:17AM -35.7320 140.4820 111° Southeast 488 562 37,000 120 Climbing FlightAware
04:18AM -35.7439 140.5223 110° East 487 560 37,000 180 Level FlightAware ADS-B (YPAD / ADL)
04:18AM -35.7791 140.6410 110° East 485 558 37,200  Climbing Aus ATC (RADAR)
04:18AM -35.7830 140.6500 110° East 485 558 37,000 -240 Descending FlightAware
04:19AM -35.8180 140.7660 110° East 483 556 37,000  Level FlightAware
04:20AM -35.8510 140.8700 111° Southeast 483 556 37,000  Level FlightAware
04:20AM -35.8870 140.9700 114° Southeast 484 557 37,000  Level FlightAware
04:21AM -35.9230 141.0690 114° Southeast 484 557 37,000 120 Level FlightAware
04:22AM -35.9583 141.1730 114° Southeast 482 555 37,200  Climbing Aus ATC (RADAR)
04:22AM -35.9580 141.1660 114° Southeast 484 557 37,000 -420 Descending FlightAware
04:22AM -35.9870 141.2460 114° Southeast 484 557 37,000 120 Level FlightAware
04:23AM -36.0345 141.3870 114° Southeast 480 552 37,200  Climbing Aus ATC (RADAR)
04:23AM -36.0350 141.3820 114° Southeast 484 557 37,000  Descending FlightAware
04:24AM -36.0655 141.4753 114° Southeast 477 549 37,200  Climbing Aus ATC (RADAR)
04:24AM -36.0710 141.4810 114° Southeast 483 556 37,000 -300 Descending FlightAware
04:24AM -36.1040 141.5750 114° Southeast 482 555 37,000  Level FlightAware
04:25AM -36.1370 141.6680 114° Southeast 481 554 37,000  Level FlightAware
04:26AM -36.1700 141.7600 114° Southeast 479 551 37,000  Level FlightAware
04:26AM -36.2040 141.8570 114° Southeast 477 549 37,000  Level FlightAware
04:27AM -36.2280 141.9260 113° Southeast 476 548 37,000 -540 Level FlightAware
04:28AM -36.2682 142.0512 113° Southeast 471 542 36,400 -840 Descending Aus ATC (RADAR)
04:28AM -36.2856 142.1002 114° Southeast 466 536 36,100 -1,500 Descending Aus ATC (RADAR)
04:28AM -36.2860 142.0920 114° Southeast 467 537 35,900 -1,380 Descending FlightAware
04:29AM -36.3250 142.2040 113° Southeast 478 550 35,100 -1,020 Descending FlightAware
04:29AM -36.3560 142.2920 114° Southeast 471 542 34,600 -960 Descending FlightAware
04:30AM -36.3860 142.3790 113° Southeast 463 533 34,000 -780 Descending FlightAware
04:30AM -36.4160 142.4650 113° Southeast 462 532 33,700 -480 Descending FlightAware
04:31AM -36.4490 142.5620 113° Southeast 458 527 33,400 -480 Descending FlightAware
04:32AM -36.4740 142.6350 113° Southeast 463 533 33,200 -240 Descending FlightAware
04:32AM -36.4997 142.7136 113° Southeast 460 529 33,200 -540 Level Aus ATC (RADAR)
04:33AM -36.5410 142.8300 113° Southeast 466 536 32,500 -540 Descending FlightAware
04:34AM -36.5754 142.9341 113° Southeast 460 529 32,400 -480 Descending Aus ATC (RADAR)
04:34AM -36.5750 142.9290 113° Southeast 464 534 32,200 -360 Descending FlightAware
04:34AM -36.6046 143.0197 113° Southeast 458 527 32,200 -420 Level Aus ATC (RADAR)
04:34AM -36.6120 143.0390 113° Southeast 461 531 31,900 -540 Descending FlightAware
04:35AM -36.6413 143.1297 113° Southeast 455 524 31,800 -540 Descending Aus ATC (RADAR)
04:35AM -36.6410 143.1260 113° Southeast 462 532 31,600 -900 Descending FlightAware
04:36AM -36.6730 143.2220 113° Southeast 460 529 31,200 -480 Descending FlightAware
04:36AM -36.7020 143.3090 113° Southeast 459 528 31,000 -360 Descending FlightAware
04:37AM -36.7521 143.4584 113° Southeast 455 524 30,700 -540 Descending Aus ATC (RADAR)
04:37AM -36.7510 143.4560 113° Southeast 461 531 30,500 -1,020 Descending FlightAware
04:38AM -36.7750 143.5270 113° Southeast 460 529 30,200 -720 Descending FlightAware
04:38AM -36.8090 143.6270 113° Southeast 461 531 29,700 -840 Descending FlightAware
04:39AM -36.8370 143.7110 113° Southeast 463 533 29,200 -960 Descending FlightAware
04:40AM -36.8650 143.7990 112° Southeast 464 534 28,600 -2,280 Descending FlightAware
04:40AM -36.9102 143.9361 112° Southeast 444 511 25,800 -3,300 Descending Aus ATC (RADAR)
04:41AM -36.9130 143.9450 112° Southeast 446 513 25,400 -3,420 Descending FlightAware
04:41AM -36.9410 144.0290 113° Southeast 434 499 23,500 -3,180 Descending FlightAware
04:42AM -36.9823 144.1155 113° Southeast 420 483 21,500 -3,420 Descending Aus ATC (RADAR)
04:42AM -36.9870 144.1220 113° Southeast 411 473 21,000 -3,780 Descending FlightAware
04:42AM -37.0197 144.1833 113° Southeast 399 459 19,300 -3,720 Descending Aus ATC (RADAR)
04:42AM -37.0250 144.1920 113° Southeast 407 468 18,800 -3,600 Descending FlightAware
04:43AM -37.0718 144.2793 113° Southeast 388 447 16,300 -3,600 Descending Aus ATC (RADAR)
04:43AM -37.0870 144.3070 113° Southeast 385 443 15,200 -3,780 Descending FlightAware
04:44AM -37.1160 144.3610 124° Southeast 384 442 13,500 -2,880 Descending FlightAware
04:45AM -37.1500 144.4250 124° Southeast 367 422 12,100 -2,700 Descending FlightAware
04:45AM -37.1920 144.5040 124° Southeast 355 409 9,900 -2,940 Descending FlightAware
04:46AM -37.2310 144.5750 124° Southeast 338 389 7,900 -2,460 Descending FlightAware
04:46AM -37.2336 144.5792 124° Southeast 334 384 8,100 -2,580 Climbing Aus ATC (RADAR)
04:47AM -37.2620 144.6330 124° Southeast 330 380 6,400 -2,760 Descending FlightAware
04:47AM -37.2633 144.6356 124° Southeast 325 374 6,500 -840 Climbing Aus ATC (RADAR)
04:47AM -37.2850 144.6770 124° Southeast 298 343 6,000 -540 Descending FlightAware
04:47AM -37.2913 144.6880 124° Southeast 303 349 6,200 -780 Climbing Aus ATC (RADAR)
04:48AM -37.3140 144.7310 124° Southeast 252 290 5,500 -960 Descending FlightAware
04:48AM -37.3340 144.7620 129° Southeast 236 272 5,200 -660 Descending FlightAware
04:49AM -37.3690 144.7760 129° Southeast 229 264 4,800 -300 Descending FlightAware
04:49AM -37.3779 144.7781 129° Southeast 231 266 5,000 -300 Climbing Aus ATC (RADAR)
04:49AM -37.4127 144.7861 129° Southeast 218 251 4,600 -1,080 Descending Aus ATC (RADAR)
04:49AM -37.4110 144.7860 129° Southeast 211 243 4,400 -900 Descending FlightAware
04:50AM -37.4440 144.7930 170° South 200 230 4,100 -600 Descending FlightAware
04:51AM -37.4770 144.8020 170° South 184 212 3,700 -300 Descending FlightAware
04:51AM -37.4793 144.8020 170° South 186 214 3,900 -1,080 Climbing Aus ATC (RADAR)
04:51AM -37.5070 144.8080 170° South 175 201 3,100 -1,080 Descending FlightAware
04:51AM -37.5081 144.8078 170° South 178 205 3,300 -540 Climbing Aus ATC (RADAR)
04:52AM -37.5352 144.8132 170° South 169 194 2,800 -1,260 Descending Aus ATC (RADAR)
04:52AM -37.5340 144.8130 170° South 164 189 2,400 -1,140 Descending FlightAware
04:53AM -37.5680 144.8190 172° South 135 155 1,900 -720 Descending FlightAware
04:53AM -37.5860 144.8220 172° South 122 140 1,600 -720 Descending FlightAware
04:54AM -37.6010 144.8250 172° South 124 143 1,200 -360 Descending FlightAware
04:54AM -37.6062 144.8261 172° South 123 142 1,400  Climbing Aus ATC (RADAR)
04:54AM -37.6140 144.8270 172° South 124 143 1,200 -720 Descending FlightAware
04:54AM -37.6265 144.8299 172° South 126 145 1,000 -780 Descending Aus ATC (RADAR)
04:55AM -37.6501 144.8343 172° South 127 146 500 -720 Descending Aus ATC (RADAR)
04:55AM -37.6618 144.8361 173° South 124 143 300 -600 Descending Aus ATC (RADAR)